Saturday, January 31, 2015, 6:32 AM EST

KNHK, Nas Patuxent River Md

Location: Patuxent River, MD, United States Lat: 38.3
Local Time: 6:32 AM EST (11:32 GMT) Lon: -76.4
Time Zone: US/Eastern Elev: 39 ft

Show me the last for .
Show Decoded

2015-01-31 05:52 METAR KNHK 311052Z AUTO 32020G29KT 10SM CLR M07/M15 A3027 RMK AO2 PK WND
                 31030/1024 SLP249 T10671150 =
2015-01-31 04:52 METAR KNHK 310952Z AUTO 33023G30KT 10SM CLR M07/M15 A3026 RMK AO2 PK WND
                 33032/0920 SLP247 T10671150 =
2015-01-31 03:52 METAR KNHK 310852Z AUTO 32025G33KT 10SM CLR M06/M16 A3026 RMK AO2 PK WND
                 32033/0809 SLP248 T10611156 51011 =
2015-01-31 02:52 METAR KNHK 310752Z AUTO 32027G34KT 10SM CLR M06/M16 A3026 RMK AO2 PK WND
                 33035/0713 SLP247 T10611156 =
2015-01-31 00:52 METAR KNHK 310552Z AUTO 30017G24KT 10SM CLR M06/M15 A3023 RMK AO2 PK WND
                 32036/0521 SLP237 T10561150 11006 21056 51010 =
2015-01-30 23:52 METAR KNHK 310452Z AUTO 32019G33KT 10SM CLR M04/M14 A3022 RMK AO2 PK WND
                 31036/0420 SLP233 T10441139 400611044 =
2015-01-30 22:52 METAR KNHK 310352Z 31023G35KT 10SM CLR M04/M14 A3021 RMK AO2 PK WND 32035/0345
                 SLP231 T10441139 =
2015-01-30 21:52 METAR KNHK 310252Z 31027G35KT 10SM CLR M04/M13 A3020 RMK AO2 PK WND 32038/0220
                 SLP226 T10391133 53021 =
2015-01-30 20:52 METAR KNHK 310152Z 31026G39KT 10SM CLR M02/M13 A3017 RMK AO2 PK WND 32039/0150
                 SLP218 T10221128 =
2015-01-30 19:52 METAR KNHK 310052Z 30018G29KT 10SM CLR M02/M13 A3015 RMK AO2 PK WND 31032/0021
                 SLP209 T10171128 =
2015-01-30 18:52 METAR KNHK 302352Z 30026G36KT 10SM FEW070 M01/M12 A3014 RMK AO2 PK WND
                 32037/2331 SLP206 T10061122 10056 21006 53033 =
2015-01-30 17:52 METAR KNHK 302252Z 30017G27KT 10SM FEW035 FEW070 01/M11 A3011 RMK AO2 PK WND
                 31033/2201 SLP194 T00061111 =
2015-01-30 16:52 METAR KNHK 302152Z 30024G33KT 10SM FEW035 SCT070 02/M11 A3007 RMK AO2 PK WND
                 30033/2149 SLP183 T00171106 =
2015-01-30 15:52 METAR KNHK 302052Z 32024G32KT 10SM FEW035 SCT070 03/M11 A3004 RMK AO2 PK WND
                 32032/2052 SLP173 T00331106 53009 =
2015-01-30 14:52 METAR KNHK 301952Z 30018G30KT 10SM FEW035 SCT070 04/M11 A3001 RMK AO2 PK WND
                 30032/1859 SLP163 T00441111 =
2015-01-30 13:52 METAR KNHK 301852Z 31022G28KT 10SM SCT035 BKN070 06/M10 A3000 RMK AO2 PK WND
                 31031/1826 SLP158 T00561100 =
2015-01-30 12:52 METAR KNHK 301752Z 32018G32KT 10SM SCT035 BKN060 02/M05 A3001 RMK AO2 PK WND
                 32042/1738 SNE1656B40E51 SLP164 P0000 60000 T00221050 10061 20022 50005 =
2015-01-30 12:40 METAR KNHK 301740Z 32032G42KT 4SM -SN BKN043 BKN070 04/M05 A3001 RMK AO2 PK WND
                 32042/1738 SNE1656B40 P0000 T00441050 =
2015-01-30 12:03 METAR KNHK 301703Z 31018G23KT 10SM SCT043 BKN070 03/M03 A3001 RMK AO2 SNE1656
                 P0000 T00331028 =
2015-01-30 11:52 METAR KNHK 301652Z 32018G27KT 9SM -SN BKN045 BKN070 03/M03 A3002 RMK AO2 PK WND
                 31031/1637 SNB44 SLP164 P0000 T00331033 =
2015-01-30 11:44 METAR KNHK 301644Z 32019G31KT 10SM -SN BKN045 BKN070 03/M04 A3001 RMK AO2 PK WND
                 31031/1637 SNB44 P0000 T00331039 =
2015-01-30 10:52 METAR KNHK 301552Z 31020KT 10SM SCT045 BKN070 06/M05 A3001 RMK AO2 SLP162 SHSN
                 NW T00611050 =
2015-01-30 09:52 METAR KNHK 301452Z 32016KT 10SM BKN070 04/M06 A3000 RMK AO2 PK WND 33026/1404
                 SLP159 T00441056 51021 =
2015-01-30 08:52 METAR KNHK 301352Z 32020G26KT 10SM SCT090 04/M06 A2998 RMK AO2 PK WND 33034/1300
                 SLP154 T00441056 =
2015-01-30 07:52 METAR KNHK 301252Z 32018KT 10SM SCT070 04/M03 A2995 RMK AO2 SLP143 T00391028 =
2015-01-30 06:52 METAR KNHK 301152Z 32012KT 10SM BKN060 04/M02 A2994 RMK AO2 SLP138 60000
                 T00391022 10056 20028 53010 =

Support USWX by starting your Amazon purchase here.